Time;durP1;ratioP1;P1;durP2;ratioP2;P2;SDS_P1;SDS_P2;PMS_P1;PMS_P2;Temp;Humidity;BMP_temperature;BMP_pressure;BME280_temperature;BME280_humidity;BME280_pressure;Samples;Min_cycle;Max_cycle;Signal;HPM_P1;HPM_P2
2022/08/08 00:00:15;;;;;;;5.43;4.93;;;;;;;17.81;64.05;102389.31;6012230;29;20329;-72
2022/08/08 00:03:47;;;;;;;6.75;5.93;;;;;;;17.75;64.31;102387.16;6007285;29;20815;-73
2022/08/08 00:07:17;;;;;;;5.97;5.40;;;;;;;17.82;64.74;102389.16;6011062;29;20234;-73
2022/08/08 00:10:48;;;;;;;8.00;6.78;;;;;;;17.88;64.06;102387.69;6015994;29;20249;-74
2022/08/08 00:14:18;;;;;;;6.15;5.35;;;;;;;17.92;63.85;102381.81;6004854;29;20279;-72
2022/08/08 00:17:48;;;;;;;6.38;5.88;;;;;;;17.67;64.46;102378.84;6016197;29;20281;-72
2022/08/08 00:21:15;;;;;;;7.13;6.43;;;;;;;17.52;64.97;102379.28;6008401;29;20234;-73
2022/08/08 00:24:44;;;;;;;6.65;6.07;;;;;;;17.42;65.79;102377.50;6011955;29;20254;-73
2022/08/08 00:28:08;;;;;;;7.75;6.15;;;;;;;17.33;66.26;102376.53;6006952;29;20343;-73
2022/08/08 00:31:34;;;;;;;6.80;6.25;;;;;;;17.59;65.51;102376.84;6007872;29;20254;-73
2022/08/08 00:35:15;;;;;;;6.32;5.38;;;;;;;17.57;65.43;102370.66;6012206;29;20230;-73
2022/08/08 00:38:42;;;;;;;6.10;5.60;;;;;;;17.56;65.48;102380.69;6014671;29;20235;-72
2022/08/08 00:42:38;;;;;;;6.45;5.90;;;;;;;17.45;65.63;102380.84;6024937;29;21284;-72
2022/08/08 00:46:12;;;;;;;6.20;5.53;;;;;;;17.40;65.53;102382.25;6011237;29;20246;-72
2022/08/08 00:50:08;;;;;;;7.05;5.85;;;;;;;17.45;66.25;102380.84;6017543;29;20242;-73
2022/08/08 00:54:02;;;;;;;6.20;5.35;;;;;;;17.53;65.78;102377.41;6004457;29;20708;-73
2022/08/08 00:58:16;;;;;;;5.28;4.85;;;;;;;17.35;66.54;102379.97;6014605;29;20323;-72
2022/08/08 01:01:44;;;;;;;6.53;5.90;;;;;;;17.25;66.35;102373.66;6012664;29;20234;-72
2022/08/08 01:05:54;;;;;;;7.30;6.65;;;;;;;17.20;66.87;102375.94;6011714;29;20250;-72
2022/08/08 01:09:42;;;;;;;6.30;5.80;;;;;;;17.15;67.73;102383.69;6012529;29;20231;-72
2022/08/08 01:13:51;;;;;;;5.45;4.95;;;;;;;17.31;67.25;102374.97;6006617;29;20250;-72
2022/08/08 01:17:53;;;;;;;5.63;5.05;;;;;;;17.34;67.49;102371.94;6007249;29;20226;-71
2022/08/08 01:21:31;;;;;;;5.68;5.22;;;;;;;17.06;67.47;102379.09;6006953;29;20234;-73
2022/08/08 01:25:07;;;;;;;5.53;5.03;;;;;;;16.96;67.66;102388.25;6001939;29;20243;-72
2022/08/08 01:29:01;;;;;;;5.93;5.43;;;;;;;16.94;67.74;102382.94;6005930;29;20234;-72
2022/08/08 01:33:01;;;;;;;5.82;5.38;;;;;;;16.77;67.86;102383.63;6003298;29;20242;-73
2022/08/08 01:36:57;;;;;;;5.50;5.00;;;;;;;17.00;67.79;102378.81;6005460;29;20745;-72
2022/08/08 01:40:29;;;;;;;4.85;4.43;;;;;;;17.14;67.46;102390.16;6007436;29;20237;-72
2022/08/08 01:44:17;;;;;;;5.85;4.25;;;;;;;17.01;67.15;102381.38;6004432;29;20314;-73
2022/08/08 01:47:52;;;;;;;5.70;5.03;;;;;;;16.81;67.96;102385.06;6008776;29;20234;-72
2022/08/08 01:51:45;;;;;;;6.05;5.57;;;;;;;16.81;67.70;102390.53;6006452;29;20239;-73
2022/08/08 01:55:15;;;;;;;5.63;5.10;;;;;;;16.70;68.49;102388.78;6007950;29;20235;-73
2022/08/08 01:58:46;;;;;;;6.53;5.32;;;;;;;16.91;67.49;102380.50;6008791;29;20239;-72
2022/08/08 02:02:21;;;;;;;5.97;5.47;;;;;;;16.65;68.66;102382.00;6003281;29;20234;-73
2022/08/08 02:05:56;;;;;;;5.40;4.97;;;;;;;16.56;68.60;102382.84;6015461;29;20234;-73
2022/08/08 02:09:31;;;;;;;5.53;4.97;;;;;;;16.53;68.20;102383.97;6008922;29;20333;-72
2022/08/08 02:13:00;;;;;;;6.25;5.65;;;;;;;16.55;68.40;102386.56;6011053;29;20479;-73
2022/08/08 02:16:34;;;;;;;6.20;5.68;;;;;;;16.69;67.97;102381.59;6003902;29;20234;-72
2022/08/08 02:20:00;;;;;;;5.85;5.35;;;;;;;16.51;68.88;102379.66;6008177;29;20262;-71
2022/08/08 02:23:26;;;;;;;4.97;4.57;;;;;;;16.60;69.38;102379.72;6009971;29;20269;-72
2022/08/08 02:26:52;;;;;;;6.13;5.63;;;;;;;16.53;68.82;102383.97;6012209;29;20265;-72
2022/08/08 02:30:19;;;;;;;6.75;6.15;;;;;;;16.44;69.08;102389.31;6010925;29;20831;-72
2022/08/08 02:33:59;;;;;;;5.75;4.82;;;;;;;16.52;69.43;102395.84;6009076;29;20286;-73
2022/08/08 02:37:33;;;;;;;6.68;6.13;;;;;;;16.57;68.54;102392.72;6015714;29;20234;-72
2022/08/08 02:41:13;;;;;;;6.60;5.88;;;;;;;16.63;68.62;102392.16;6012479;29;20242;-73
2022/08/08 02:45:07;;;;;;;5.57;5.10;;;;;;;16.58;68.69;102389.00;6012287;29;20246;-73
2022/08/08 02:48:59;;;;;;;6.40;5.05;;;;;;;16.43;69.66;102395.78;6013780;29;20238;-73
2022/08/08 02:52:47;;;;;;;5.88;5.38;;;;;;;16.54;69.08;102396.56;6006720;29;20771;-72
2022/08/08 02:56:53;;;;;;;5.97;5.40;;;;;;;16.49;69.35;102396.13;6009394;29;20238;-73
2022/08/08 03:00:36;;;;;;;6.97;6.25;;;;;;;16.43;69.76;102393.06;6009367;29;20257;-72
2022/08/08 03:04:52;;;;;;;6.45;5.85;;;;;;;16.31;70.15;102386.00;6016442;29;20660;-73
2022/08/08 03:09:04;;;;;;;21.92;19.77;;;;;;;16.17;70.83;102395.38;6014771;29;20239;-73
2022/08/08 03:12:53;;;;;;;18.42;16.92;;;;;;;16.13;70.88;102404.81;6016349;29;20238;-72
2022/08/08 03:16:35;;;;;;;11.27;10.48;;;;;;;16.16;71.23;102400.97;6001576;29;20234;-72
2022/08/08 03:20:00;;;;;;;11.47;10.43;;;;;;;16.16;70.61;102404.53;6014975;29;20730;-71
2022/08/08 03:23:22;;;;;;;9.02;8.20;;;;;;;16.18;70.59;102405.28;6004036;29;20509;-73
2022/08/08 03:26:49;;;;;;;9.20;8.40;;;;;;;16.07;71.40;102404.47;6008065;29;20262;-72
2022/08/08 03:30:14;;;;;;;8.43;7.63;;;;;;;16.09;71.00;102406.06;6007775;29;20223;-72
2022/08/08 03:33:38;;;;;;;10.67;9.77;;;;;;;16.35;70.98;102406.50;6008842;29;20625;-72
2022/08/08 03:37:00;;;;;;;13.43;12.23;;;;;;;16.54;70.28;102412.91;6012315;29;20333;-74
2022/08/08 03:40:24;;;;;;;11.50;10.50;;;;;;;16.49;70.12;102400.69;6008930;29;20227;-73
2022/08/08 03:43:55;;;;;;;10.25;9.30;;;;;;;16.49;69.95;102409.75;6013182;29;20539;-73
2022/08/08 03:47:20;;;;;;;9.27;8.23;;;;;;;16.39;70.40;102410.69;6012316;29;20775;-72
2022/08/08 03:50:45;;;;;;;8.18;7.57;;;;;;;16.44;70.74;102411.97;6014577;29;20230;-72
2022/08/08 03:54:06;;;;;;;8.65;7.80;;;;;;;16.39;70.42;102425.16;6009641;29;20507;-73
2022/08/08 03:57:29;;;;;;;18.05;16.42;;;;;;;16.48;70.37;102416.16;6014235;29;20234;-72
2022/08/08 04:00:52;;;;;;;11.07;10.13;;;;;;;16.69;70.22;102417.00;6008708;29;20246;-73
2022/08/08 04:04:19;;;;;;;10.30;9.25;;;;;;;16.86;69.64;102414.59;6005301;29;20543;-72
2022/08/08 04:07:41;;;;;;;9.02;8.23;;;;;;;16.75;69.62;102423.75;6012220;29;20325;-70
2022/08/08 04:11:04;;;;;;;7.40;6.43;;;;;;;16.70;69.78;102426.03;6027969;29;20310;-71
2022/08/08 04:14:27;;;;;;;6.15;5.60;;;;;;;16.92;69.63;102438.59;6009246;29;20232;-72
2022/08/08 04:17:48;;;;;;;9.48;8.68;;;;;;;17.04;68.89;102435.59;6013056;29;20235;-72
2022/08/08 04:21:08;;;;;;;14.75;13.52;;;;;;;17.14;68.17;102431.03;6009905;29;20265;-72
2022/08/08 04:24:30;;;;;;;14.85;13.55;;;;;;;17.10;68.87;102435.03;6007109;29;20234;-73
2022/08/08 04:27:51;;;;;;;9.93;7.78;;;;;;;17.06;68.34;102430.88;6022318;29;20598;-72
2022/08/08 04:31:13;;;;;;;7.10;6.50;;;;;;;17.13;67.52;102432.03;6016866;29;20236;-73
2022/08/08 04:34:35;;;;;;;6.47;5.97;;;;;;;17.20;67.35;102435.91;6009276;29;20246;-72
2022/08/08 04:37:56;;;;;;;6.05;5.55;;;;;;;17.25;67.15;102435.50;6005656;29;20243;-72
2022/08/08 04:41:27;;;;;;;6.53;4.97;;;;;;;17.24;67.58;102429.19;6006602;29;20235;-72
2022/08/08 04:44:48;;;;;;;5.65;5.00;;;;;;;17.41;66.00;102427.63;6008731;29;20259;-73
2022/08/08 04:48:11;;;;;;;5.53;5.03;;;;;;;17.42;66.42;102430.19;6014807;29;20341;-73
2022/08/08 04:51:34;;;;;;;6.05;5.45;;;;;;;17.40;66.53;102426.75;6024050;29;20902;-72
2022/08/08 04:54:55;;;;;;;6.03;4.93;;;;;;;17.44;66.12;102427.31;6007646;29;20625;-73
2022/08/08 04:58:16;;;;;;;23.60;21.52;;;;;;;17.36;65.94;102424.44;6009332;29;20227;-71
2022/08/08 05:01:37;;;;;;;18.25;16.17;;;;;;;17.34;65.70;102424.59;6002272;29;21122;-71
2022/08/08 05:05:00;;;;;;;14.75;13.55;;;;;;;17.47;65.31;102429.78;6010769;29;20242;-73
2022/08/08 05:08:25;;;;;;;10.25;9.35;;;;;;;17.50;65.15;102424.91;6012094;29;20226;-72
2022/08/08 05:11:47;;;;;;;7.60;6.90;;;;;;;17.60;64.81;102434.97;6005316;29;20262;-71
2022/08/08 05:15:09;;;;;;;5.47;4.85;;;;;;;17.68;64.45;102435.13;6009116;29;20230;-72
2022/08/08 05:18:30;;;;;;;8.15;6.55;;;;;;;17.74;64.55;102454.50;6010803;29;20571;-72
2022/08/08 05:21:54;;;;;;;6.40;5.80;;;;;;;17.77;63.99;102447.91;6005038;29;20234;-72
2022/08/08 05:25:16;;;;;;;6.65;5.43;;;;;;;17.68;64.29;102449.63;6009745;29;20238;-72
2022/08/08 05:28:37;;;;;;;4.78;4.32;;;;;;;17.88;64.17;102450.47;6007850;29;20242;-72
2022/08/08 05:31:58;;;;;;;4.70;4.30;;;;;;;18.15;63.41;102448.69;6008002;29;20235;-72
2022/08/08 05:35:23;;;;;;;5.10;4.63;;;;;;;18.13;63.57;102442.53;6005697;29;20230;-72
2022/08/08 05:38:51;;;;;;;12.30;11.10;;;;;;;18.02;63.25;102448.13;5993604;29;20676;-72
2022/08/08 05:42:14;;;;;;;13.70;12.50;;;;;;;18.00;63.47;102452.06;5999677;29;20231;-72
2022/08/08 05:45:36;;;;;;;14.23;12.73;;;;;;;17.92;64.26;102454.66;6005021;29;20231;-68
2022/08/08 05:49:00;;;;;;;8.00;7.22;;;;;;;17.89;64.34;102461.25;6017509;29;20246;-68
2022/08/08 05:52:23;;;;;;;8.75;6.82;;;;;;;17.83;64.30;102459.09;6013971;29;20227;-69
2022/08/08 05:55:48;;;;;;;10.20;7.35;;;;;;;17.80;65.05;102461.25;6018595;29;20317;-69
2022/08/08 05:59:16;;;;;;;11.18;10.18;;;;;;;17.87;64.57;102456.94;6007788;29;20231;-70
2022/08/08 06:06:16;;;;;;;9.13;8.43;;;;;;;18.14;63.40;102467.97;6008153;29;20497;-70
2022/08/08 06:09:38;;;;;;;17.80;16.30;;;;;;;18.32;62.69;102463.47;6016155;29;20234;-70
2022/08/08 06:13:01;;;;;;;7.75;7.03;;;;;;;18.41;62.45;102468.06;6013997;29;20262;-70
2022/08/08 06:16:23;;;;;;;16.05;14.63;;;;;;;18.46;61.72;102464.91;6003052;29;20334;-69
2022/08/08 06:20:03;;;;;;;12.05;10.95;;;;;;;18.54;61.80;102474.09;6013946;29;20235;-69
2022/08/08 06:23:26;;;;;;;8.75;8.00;;;;;;;18.69;61.98;102467.09;6015976;29;20873;-71
2022/08/08 06:26:51;;;;;;;6.78;6.18;;;;;;;18.85;60.56;102472.81;6013840;29;20238;-69
2022/08/08 06:30:18;;;;;;;3.50;3.20;;;;;;;18.95;58.97;102473.63;6015075;29;20235;-70
2022/08/08 06:33:54;;;;;;;5.80;4.20;;;;;;;19.20;58.83;102479.38;6011157;29;20254;-70
2022/08/08 06:37:21;;;;;;;2.95;2.75;;;;;;;19.31;56.85;102481.91;6012194;29;20513;-71
2022/08/08 06:40:43;;;;;;;3.00;2.63;;;;;;;19.39;56.91;102484.75;6005920;29;20242;-73
2022/08/08 06:44:11;;;;;;;3.35;3.05;;;;;;;19.52;57.53;102486.13;6016762;29;20609;-72
2022/08/08 06:47:35;;;;;;;5.57;3.25;;;;;;;19.55;57.72;102496.75;6005129;29;20239;-71
2022/08/08 06:50:57;;;;;;;4.13;3.40;;;;;;;19.70;57.67;102497.06;5997829;29;20242;-69
2022/08/08 06:54:22;;;;;;;3.75;2.83;;;;;;;19.77;57.89;102489.97;6002201;29;20235;-70
2022/08/08 06:57:43;;;;;;;3.13;2.55;;;;;;;19.69;57.96;102493.47;5997109;29;20230;-71
2022/08/08 07:01:07;;;;;;;3.67;3.38;;;;;;;19.87;57.42;102496.22;5999694;29;20245;-71
2022/08/08 07:04:39;;;;;;;4.57;2.40;;;;;;;19.86;56.44;102494.47;6005295;29;20242;-70
2022/08/08 07:08:16;;;;;;;2.85;2.60;;;;;;;20.13;56.92;102494.38;5998603;29;20238;-71
2022/08/08 07:11:41;;;;;;;3.85;2.85;;;;;;;20.30;55.62;102499.00;5995065;29;20291;-70
2022/08/08 07:15:05;;;;;;;3.35;2.88;;;;;;;20.40;55.71;102494.28;5993329;29;20266;-69
2022/08/08 07:18:39;;;;;;;3.65;2.70;;;;;;;20.48;55.53;102494.38;6012285;29;20886;-71
2022/08/08 07:22:04;;;;;;;5.47;3.13;;;;;;;20.68;54.93;102495.84;5996672;29;20246;-70
2022/08/08 07:25:27;;;;;;;3.08;2.72;;;;;;;20.46;55.17;102498.28;5994056;29;20283;-71
2022/08/08 07:28:49;;;;;;;3.08;2.40;;;;;;;20.41;53.78;102486.94;6000498;29;20326;-69
2022/08/08 07:32:11;;;;;;;5.15;2.75;;;;;;;20.64;53.28;102491.72;6000803;29;20262;-70
2022/08/08 07:35:33;;;;;;;3.85;3.45;;;;;;;20.85;53.41;102494.06;6004044;29;20282;-70
2022/08/08 07:38:58;;;;;;;4.13;2.70;;;;;;;20.86;52.52;102495.75;6001458;29;20529;-71
2022/08/08 07:42:22;;;;;;;3.70;3.10;;;;;;;20.89;52.00;102500.94;6003853;29;20239;-72
2022/08/08 07:45:44;;;;;;;2.65;2.42;;;;;;;20.90;52.12;102505.41;6004873;29;20266;-72
2022/08/08 07:49:06;;;;;;;4.32;3.20;;;;;;;21.20;52.40;102502.13;6017996;29;20235;-73
2022/08/08 07:52:30;;;;;;;6.25;5.65;;;;;;;21.55;51.24;102501.03;6020511;29;20253;-72
2022/08/08 07:55:56;;;;;;;3.08;2.78;;;;;;;21.70;50.92;102504.84;6016009;29;20239;-69
2022/08/08 07:59:20;;;;;;;7.15;3.28;;;;;;;21.80;50.68;102497.31;5994285;29;20610;-69
2022/08/08 08:02:47;;;;;;;5.20;3.78;;;;;;;22.10;50.42;102501.31;6013366;29;20230;-70
2022/08/08 08:06:13;;;;;;;6.68;2.83;;;;;;;22.38;49.59;102508.19;6029211;29;20330;-70
2022/08/08 08:09:41;;;;;;;4.50;2.60;;;;;;;22.64;49.41;102513.47;6012672;29;20611;-69
2022/08/08 08:13:23;;;;;;;4.38;2.92;;;;;;;22.06;48.95;102513.69;6016935;29;20516;-71
2022/08/08 08:16:46;;;;;;;4.50;2.70;;;;;;;22.13;49.77;102512.81;6004640;29;20239;-71
2022/08/08 08:20:10;;;;;;;2.65;2.45;;;;;;;22.26;47.13;102512.28;6009313;29;20230;-70
2022/08/08 08:23:32;;;;;;;2.95;2.33;;;;;;;22.11;47.14;102517.63;6016170;29;20246;-71
2022/08/08 08:26:53;;;;;;;3.30;2.15;;;;;;;22.51;47.94;102514.00;6018716;29;20242;-68
2022/08/08 08:30:17;;;;;;;2.30;2.05;;;;;;;22.09;46.67;102505.94;6017934;29;21227;-70
2022/08/08 08:33:40;;;;;;;4.85;2.15;;;;;;;22.72;46.77;102511.56;6013929;29;20325;-70
2022/08/08 08:37:03;;;;;;;3.90;2.30;;;;;;;22.61;46.01;102516.59;6017052;29;20250;-74
2022/08/08 08:40:25;;;;;;;3.20;1.83;;;;;;;22.62;44.10;102515.56;6010312;29;20253;-69
2022/08/08 08:43:49;;;;;;;2.75;1.98;;;;;;;22.78;44.67;102521.03;6011367;29;20237;-70
2022/08/08 08:47:11;;;;;;;3.63;2.20;;;;;;;22.58;44.46;102515.06;6004037;29;20242;-71
2022/08/08 08:50:34;;;;;;;2.45;1.92;;;;;;;22.48;43.69;102518.97;5994963;29;20242;-73
2022/08/08 08:54:02;;;;;;;3.50;2.97;;;;;;;22.82;45.77;102519.66;6002598;29;20239;-68
2022/08/08 08:57:31;;;;;;;3.90;2.53;;;;;;;23.23;45.22;102521.22;5993056;29;20231;-69
2022/08/08 09:00:53;;;;;;;2.22;1.77;;;;;;;23.34;43.77;102528.25;6005422;29;20243;-69
2022/08/08 09:04:21;;;;;;;4.05;1.63;;;;;;;23.58;44.45;102526.22;6019391;29;20341;-72
2022/08/08 09:07:44;;;;;;;4.28;2.10;;;;;;;23.54;43.58;102529.53;6004813;29;20234;-70
2022/08/08 09:11:06;;;;;;;3.17;2.20;;;;;;;24.08;43.27;102523.00;6009081;29;20250;-71
2022/08/08 09:14:28;;;;;;;3.38;2.38;;;;;;;24.17;43.44;102534.81;6007314;29;20230;-73
2022/08/08 09:17:53;;;;;;;3.15;1.75;;;;;;;24.13;42.53;102530.72;6013541;29;20238;-72
2022/08/08 09:21:19;;;;;;;1.92;1.70;;;;;;;24.36;42.05;102531.56;6004762;29;20240;-71
2022/08/08 09:24:42;;;;;;;4.47;1.65;;;;;;;24.19;41.33;102521.69;6000119;29;20238;-69
2022/08/08 09:28:04;;;;;;;4.50;1.83;;;;;;;24.20;41.25;102527.00;6009428;29;20386;-71
2022/08/08 09:31:45;;;;;;;2.58;1.77;;;;;;;24.19;41.65;102527.22;6006753;29;20243;-73
2022/08/08 09:35:09;;;;;;;3.78;2.60;;;;;;;24.94;41.12;102522.53;6005600;29;20234;-71
2022/08/08 09:38:47;;;;;;;3.47;2.53;;;;;;;25.22;43.15;102521.66;6002891;29;20234;-73
2022/08/08 09:42:13;;;;;;;4.57;2.38;;;;;;;24.60;45.53;102520.28;6010978;29;20368;-71
2022/08/08 09:45:42;;;;;;;4.43;2.08;;;;;;;24.55;45.98;102526.34;6006158;29;20246;-73
2022/08/08 09:49:04;;;;;;;2.20;2.00;;;;;;;24.39;47.01;102518.22;6008437;29;20567;-71
2022/08/08 09:52:30;;;;;;;4.45;2.05;;;;;;;25.13;46.28;102517.31;6003941;29;20629;-72
2022/08/08 09:55:53;;;;;;;2.58;1.75;;;;;;;25.26;45.03;102522.16;6008539;29;20265;-71
2022/08/08 09:59:24;;;;;;;4.30;2.10;;;;;;;25.43;44.69;102522.81;6010745;29;20242;-73
2022/08/08 10:02:46;;;;;;;2.38;2.17;;;;;;;25.44;44.91;102524.50;6001819;29;20249;-70
2022/08/08 10:06:15;;;;;;;1.83;1.65;;;;;;;25.30;45.63;102523.47;6000638;29;20246;-72
2022/08/08 10:09:37;;;;;;;13.68;12.63;;;;;;;24.80;46.40;102528.91;6010680;29;20238;-70
2022/08/08 10:13:00;;;;;;;3.63;2.72;;;;;;;25.05;45.63;102527.59;6007918;29;20258;-72
2022/08/08 10:16:21;;;;;;;5.55;2.08;;;;;;;24.95;46.04;102522.31;6005427;29;20257;-69
2022/08/08 10:19:43;;;;;;;2.08;1.88;;;;;;;25.16;45.73;102525.19;6002288;29;20316;-68
2022/08/08 10:23:04;;;;;;;2.78;1.80;;;;;;;25.01;45.48;102520.72;6002368;29;21465;-70
2022/08/08 10:26:28;;;;;;;2.40;2.20;;;;;;;25.37;44.98;102527.16;5992763;29;20234;-71
2022/08/08 10:29:55;;;;;;;3.03;1.55;;;;;;;25.14;44.88;102529.19;6006356;29;20238;-70
2022/08/08 10:33:16;;;;;;;5.28;1.90;;;;;;;25.16;44.69;102527.94;6005192;29;20238;-70
2022/08/08 10:36:41;;;;;;;3.05;1.52;;;;;;;25.35;45.07;102526.50;6011635;29;20246;-69
2022/08/08 10:40:13;;;;;;;3.13;1.50;;;;;;;25.25;45.10;102529.56;6011882;29;20230;-69
2022/08/08 10:43:38;;;;;;;2.58;1.60;;;;;;;25.23;45.04;102526.13;6013763;29;20234;-70
2022/08/08 10:47:10;;;;;;;3.13;2.50;;;;;;;23.70;46.43;102523.91;6002729;29;21194;-70
2022/08/08 10:50:35;;;;;;;5.82;2.40;;;;;;;24.34;46.25;102525.38;5997105;29;20238;-69
2022/08/08 10:53:56;;;;;;;2.60;1.85;;;;;;;24.71;45.98;102527.22;6009994;29;20277;-70
2022/08/08 10:57:17;;;;;;;10.73;9.68;;;;;;;24.71;45.63;102521.72;5988738;29;20230;-69
2022/08/08 11:00:42;;;;;;;3.40;1.88;;;;;;;24.93;44.07;102521.66;6007811;29;20254;-71
2022/08/08 11:04:07;;;;;;;3.08;1.95;;;;;;;25.32;44.29;102518.59;5997489;29;20709;-72
2022/08/08 11:07:31;;;;;;;2.78;1.67;;;;;;;25.29;42.89;102522.59;6002099;29;20253;-71
2022/08/08 11:11:01;;;;;;;3.85;1.63;;;;;;;24.59;44.02;102527.69;6000679;29;20234;-72
2022/08/08 11:14:22;;;;;;;1.92;1.80;;;;;;;25.02;44.59;102520.53;6006565;29;20364;-72
2022/08/08 11:17:44;;;;;;;5.70;2.17;;;;;;;25.29;42.85;102518.97;6002665;29;20238;-72
2022/08/08 11:21:07;;;;;;;3.20;2.30;;;;;;;25.54;43.56;102514.88;6003050;29;20246;-70
2022/08/08 11:24:28;;;;;;;3.53;2.15;;;;;;;25.66;43.14;102523.53;6002887;29;20254;-70
2022/08/08 11:27:53;;;;;;;4.55;1.90;;;;;;;25.31;42.67;102520.50;6008982;29;20258;-70
2022/08/08 11:31:17;;;;;;;2.10;1.90;;;;;;;24.45;43.73;102513.88;6007390;29;20579;-70
2022/08/08 11:34:39;;;;;;;3.20;1.98;;;;;;;24.90;43.30;102524.81;6003020;29;20690;-70
2022/08/08 11:38:02;;;;;;;2.55;1.90;;;;;;;25.52;42.91;102516.97;6003650;29;20677;-71
2022/08/08 11:41:24;;;;;;;2.45;1.25;;;;;;;25.95;41.56;102524.25;6000548;29;20230;-69
2022/08/08 11:44:46;;;;;;;2.80;1.58;;;;;;;25.95;39.84;102504.91;6008414;29;20234;-71
2022/08/08 11:48:07;;;;;;;2.92;1.60;;;;;;;25.98;40.52;102507.28;5999956;29;20243;-71
2022/08/08 11:51:29;;;;;;;3.85;1.83;;;;;;;26.12;41.41;102516.59;6008066;29;20238;-71
2022/08/08 11:54:52;;;;;;;3.75;1.42;;;;;;;25.98;42.11;102525.78;6009558;29;20239;-69
2022/08/08 11:58:13;;;;;;;2.05;1.58;;;;;;;25.48;42.30;102528.59;6008120;29;20349;-72
2022/08/08 12:01:34;;;;;;;5.00;2.08;;;;;;;25.24;42.71;102510.44;6016941;29;20760;-73
2022/08/08 12:05:02;;;;;;;4.00;1.88;;;;;;;25.24;43.19;102519.56;6019224;29;20795;-72
2022/08/08 12:08:31;;;;;;;2.00;1.80;;;;;;;25.38;42.79;102521.47;6019760;29;20234;-70
2022/08/08 12:11:54;;;;;;;5.10;2.22;;;;;;;25.57;42.85;102528.31;6008831;29;20233;-73
2022/08/08 12:15:27;;;;;;;1.77;1.35;;;;;;;25.72;41.87;102520.81;6016434;29;21095;-72
2022/08/08 12:18:52;;;;;;;1.58;1.33;;;;;;;26.28;41.13;102510.81;6007692;29;20833;-72
2022/08/08 12:22:14;;;;;;;1.63;1.50;;;;;;;26.86;40.20;102504.91;6014038;29;20254;-71
2022/08/08 12:25:35;;;;;;;3.55;1.70;;;;;;;27.60;38.14;102505.03;6007905;29;20238;-72
2022/08/08 12:28:58;;;;;;;1.80;1.20;;;;;;;29.43;35.11;102507.81;6008159;29;20249;-74
2022/08/08 12:32:19;;;;;;;1.92;1.15;;;;;;;32.19;29.90;102493.66;6002922;29;20234;-71
2022/08/08 12:35:40;;;;;;;2.05;1.30;;;;;;;34.09;26.95;102503.00;6000867;29;20238;-71
2022/08/08 12:39:01;;;;;;;3.15;2.83;;;;;;;35.71;25.63;102484.69;6006699;29;20230;-70
2022/08/08 12:42:22;;;;;;;4.03;1.83;;;;;;;37.23;23.53;102488.47;6003697;29;20383;-71
2022/08/08 12:45:46;;;;;;;2.40;1.25;;;;;;;37.28;23.89;102493.28;6011379;29;20503;-71
2022/08/08 12:49:07;;;;;;;4.93;1.60;;;;;;;31.74;29.72;102488.75;6009522;29;20234;-71
2022/08/08 12:52:33;;;;;;;3.30;1.30;;;;;;;29.34;33.79;102494.34;5999942;29;20430;-68
2022/08/08 12:55:59;;;;;;;2.17;1.55;;;;;;;28.47;35.76;102489.19;6001492;29;20242;-68
2022/08/08 12:59:22;;;;;;;2.45;1.52;;;;;;;28.08;35.94;102491.97;6002593;29;20238;-67
2022/08/08 13:02:44;;;;;;;3.95;1.40;;;;;;;27.99;35.08;102480.22;5999538;29;20262;-67
2022/08/08 13:06:08;;;;;;;1.58;1.40;;;;;;;27.08;36.52;102486.25;6008485;29;20242;-68
2022/08/08 13:09:31;;;;;;;3.00;1.45;;;;;;;26.78;38.14;102479.28;6009263;29;20696;-67
2022/08/08 13:12:52;;;;;;;2.50;1.90;;;;;;;26.43;39.17;102488.59;6003547;29;20227;-67
2022/08/08 13:16:18;;;;;;;5.75;4.97;;;;;;;26.60;38.09;102487.19;5999039;29;20243;-71
2022/08/08 13:19:43;;;;;;;3.05;2.25;;;;;;;26.26;38.64;102488.03;6000211;29;20763;-75
2022/08/08 13:23:04;;;;;;;4.40;2.00;;;;;;;27.51;36.57;102476.69;6008439;29;20238;-71
2022/08/08 13:26:30;;;;;;;2.20;1.30;;;;;;;29.09;34.34;102483.97;6004758;29;20231;-72
2022/08/08 13:29:54;;;;;;;3.70;1.60;;;;;;;31.43;30.52;102473.97;5997024;29;20258;-71
2022/08/08 13:33:16;;;;;;;6.47;4.25;;;;;;;29.31;32.79;102478.97;6006796;29;20267;-71
2022/08/08 13:36:41;;;;;;;2.53;1.50;;;;;;;28.27;34.86;102483.63;6001760;29;20510;-69
2022/08/08 13:40:05;;;;;;;2.80;1.70;;;;;;;28.68;35.20;102477.88;5997148;29;20230;-74
2022/08/08 13:43:26;;;;;;;2.05;1.27;;;;;;;27.15;36.97;102484.38;6008121;29;20257;-71
2022/08/08 13:46:55;;;;;;;1.27;1.17;;;;;;;25.78;38.66;102486.03;6005138;29;20509;-68
2022/08/08 13:50:20;;;;;;;1.80;1.17;;;;;;;25.92;39.57;102482.34;6006252;29;20235;-71
2022/08/08 13:53:51;;;;;;;1.25;1.15;;;;;;;25.92;39.78;102482.34;5988279;29;20231;-72
2022/08/08 13:57:13;;;;;;;3.90;1.50;;;;;;;25.47;41.51;102491.00;5997854;29;20229;-76
2022/08/08 14:00:39;;;;;;;2.53;1.40;;;;;;;25.15;43.64;102493.13;6008887;29;20590;-70
2022/08/08 14:04:03;;;;;;;1.63;1.20;;;;;;;24.89;44.11;102501.00;6000673;29;20321;-68
2022/08/08 14:07:28;;;;;;;2.42;1.40;;;;;;;24.60;45.72;102490.78;6004415;29;20239;-71
2022/08/08 14:10:51;;;;;;;1.55;1.42;;;;;;;24.63;46.38;102492.31;5996313;29;20740;-71
2022/08/08 14:14:12;;;;;;;2.10;1.25;;;;;;;24.71;45.99;102495.00;6002638;29;20872;-70
2022/08/08 14:17:33;;;;;;;2.70;1.25;;;;;;;24.43;46.84;102500.28;6002754;29;20270;-71
2022/08/08 14:21:01;;;;;;;3.00;1.40;;;;;;;24.33;46.64;102496.94;6004801;29;20231;-70
2022/08/08 14:24:30;;;;;;;1.55;1.13;;;;;;;24.17;47.65;102487.94;6001139;29;20234;-69
2022/08/08 14:27:52;;;;;;;2.85;1.50;;;;;;;24.15;47.91;102496.41;5994725;29;20233;-72
2022/08/08 14:31:13;;;;;;;4.97;1.60;;;;;;;24.31;47.63;102492.63;6002952;29;20250;-71
2022/08/08 14:34:35;;;;;;;3.65;1.40;;;;;;;24.23;47.54;102499.09;6005895;29;20242;-72
2022/08/08 14:38:01;;;;;;;1.63;0.98;;;;;;;24.55;47.50;102490.50;6014313;29;20269;-70
2022/08/08 14:41:22;;;;;;;6.78;2.45;;;;;;;24.44;47.60;102498.38;6012854;29;20235;-71
2022/08/08 14:44:56;;;;;;;2.45;1.23;;;;;;;24.46;47.79;102502.66;6008778;29;20226;-71
2022/08/08 14:48:17;;;;;;;2.33;1.60;;;;;;;24.66;46.94;102496.63;6012916;29;20685;-71
2022/08/08 14:51:40;;;;;;;2.65;1.80;;;;;;;24.56;47.48;102486.69;6008796;29;20321;-71
2022/08/08 14:55:00;;;;;;;16.40;1.95;;;;;;;24.69;47.45;102497.09;5999543;29;20243;-71
2022/08/08 14:58:21;;;;;;;5.13;1.40;;;;;;;24.79;46.80;102496.81;6000483;29;20255;-71
2022/08/08 15:01:47;;;;;;;4.55;1.73;;;;;;;24.55;47.18;102487.72;5993447;29;20242;-72
2022/08/08 15:05:08;;;;;;;4.07;1.30;;;;;;;24.75;46.02;102489.97;5998779;29;20546;-71
2022/08/08 15:08:30;;;;;;;1.98;1.27;;;;;;;24.90;45.78;102494.47;5994018;29;20238;-72
2022/08/08 15:11:51;;;;;;;5.32;1.55;;;;;;;25.25;45.70;102479.84;5984124;29;20231;-72
2022/08/08 15:15:17;;;;;;;2.38;1.50;;;;;;;25.40;45.09;102479.84;5989457;29;20262;-72
2022/08/08 15:18:40;;;;;;;3.78;1.83;;;;;;;25.71;44.56;102488.72;5987654;29;20737;-73
2022/08/08 15:22:01;;;;;;;1.92;1.42;;;;;;;25.81;44.38;102482.84;5987948;29;20329;-70
2022/08/08 15:25:22;;;;;;;2.65;1.20;;;;;;;26.07;44.26;102480.38;5997691;29;20350;-71
2022/08/08 15:28:43;;;;;;;2.03;1.40;;;;;;;25.75;44.49;102486.41;6002364;29;20235;-71
2022/08/08 15:32:05;;;;;;;2.78;1.80;;;;;;;25.66;45.04;102482.91;6002512;29;22553;-70
2022/08/08 15:35:29;;;;;;;2.08;1.35;;;;;;;25.43;45.35;102484.97;6007428;29;20256;-71
2022/08/08 15:38:53;;;;;;;2.42;1.63;;;;;;;25.21;45.64;102484.06;6005004;29;20246;-71
2022/08/08 15:42:14;;;;;;;2.65;1.60;;;;;;;25.20;45.56;102489.78;6009594;29;20254;-71
2022/08/08 15:45:35;;;;;;;2.60;1.05;;;;;;;25.05;45.94;102486.19;6001725;29;20654;-72
2022/08/08 15:48:56;;;;;;;2.55;1.35;;;;;;;24.87;45.79;102488.44;6008682;29;20288;-71
2022/08/08 15:52:21;;;;;;;4.47;1.88;;;;;;;25.09;46.17;102484.75;6008833;29;20656;-71
2022/08/08 15:55:42;;;;;;;3.45;1.50;;;;;;;24.64;46.26;102487.66;6008127;29;20234;-71
2022/08/08 15:59:04;;;;;;;1.25;1.02;;;;;;;24.60;47.20;102493.56;6011828;29;20238;-71
2022/08/08 16:02:25;;;;;;;4.15;1.95;;;;;;;24.70;46.87;102489.66;6006342;29;20245;-70
2022/08/08 16:05:46;;;;;;;2.72;1.70;;;;;;;24.76;46.51;102491.69;5997396;29;20231;-71